sensor_id;sensor_type;location;lat;lon;timestamp;temperature;humidity
39601;DHT22;25297;44.758;11.310;2023-12-20T00:01:46;8.00;83.20
39601;DHT22;25297;44.758;11.310;2023-12-20T00:04:12;7.90;83.60
39601;DHT22;25297;44.758;11.310;2023-12-20T00:06:37;7.90;84.20
39601;DHT22;25297;44.758;11.310;2023-12-20T00:09:03;7.90;84.60
39601;DHT22;25297;44.758;11.310;2023-12-20T00:11:29;7.80;84.90
39601;DHT22;25297;44.758;11.310;2023-12-20T00:13:54;7.80;85.00
39601;DHT22;25297;44.758;11.310;2023-12-20T00:16:20;7.80;84.80
39601;DHT22;25297;44.758;11.310;2023-12-20T00:18:45;7.90;85.10
39601;DHT22;25297;44.758;11.310;2023-12-20T00:21:11;7.90;85.40
39601;DHT22;25297;44.758;11.310;2023-12-20T00:23:37;7.90;85.30
39601;DHT22;25297;44.758;11.310;2023-12-20T00:26:02;7.90;84.90
39601;DHT22;25297;44.758;11.310;2023-12-20T00:28:28;7.80;84.40
39601;DHT22;25297;44.758;11.310;2023-12-20T00:30:54;7.80;84.60
39601;DHT22;25297;44.758;11.310;2023-12-20T00:33:19;7.70;84.70
39601;DHT22;25297;44.758;11.310;2023-12-20T00:35:45;7.70;85.30
39601;DHT22;25297;44.758;11.310;2023-12-20T00:38:10;7.70;85.20
39601;DHT22;25297;44.758;11.310;2023-12-20T00:40:37;7.60;85.00
39601;DHT22;25297;44.758;11.310;2023-12-20T00:43:02;7.60;85.20
39601;DHT22;25297;44.758;11.310;2023-12-20T00:45:28;7.50;84.50
39601;DHT22;25297;44.758;11.310;2023-12-20T00:47:54;7.40;85.10
39601;DHT22;25297;44.758;11.310;2023-12-20T00:50:20;7.40;85.40
39601;DHT22;25297;44.758;11.310;2023-12-20T00:52:47;7.50;85.70
39601;DHT22;25297;44.758;11.310;2023-12-20T00:55:13;7.50;85.90
39601;DHT22;25297;44.758;11.310;2023-12-20T00:57:39;7.50;85.90
39601;DHT22;25297;44.758;11.310;2023-12-20T01:00:05;7.50;85.60
39601;DHT22;25297;44.758;11.310;2023-12-20T01:02:31;7.50;85.30
39601;DHT22;25297;44.758;11.310;2023-12-20T01:04:56;7.50;85.00
39601;DHT22;25297;44.758;11.310;2023-12-20T01:07:22;7.40;85.50
39601;DHT22;25297;44.758;11.310;2023-12-20T01:09:48;7.40;85.50
39601;DHT22;25297;44.758;11.310;2023-12-20T01:12:13;7.40;85.60
39601;DHT22;25297;44.758;11.310;2023-12-20T01:14:39;7.40;85.50
39601;DHT22;25297;44.758;11.310;2023-12-20T01:17:05;7.30;85.80
39601;DHT22;25297;44.758;11.310;2023-12-20T01:19:30;7.40;85.80
39601;DHT22;25297;44.758;11.310;2023-12-20T01:21:56;7.50;85.40
39601;DHT22;25297;44.758;11.310;2023-12-20T01:24:22;7.30;81.70
39601;DHT22;25297;44.758;11.310;2023-12-20T01:26:47;7.40;82.10
39601;DHT22;25297;44.758;11.310;2023-12-20T01:29:13;7.30;82.60
39601;DHT22;25297;44.758;11.310;2023-12-20T01:31:40;7.20;81.80
39601;DHT22;25297;44.758;11.310;2023-12-20T01:34:06;7.10;81.70
39601;DHT22;25297;44.758;11.310;2023-12-20T01:36:31;6.90;82.30
39601;DHT22;25297;44.758;11.310;2023-12-20T01:38:57;6.90;82.70
39601;DHT22;25297;44.758;11.310;2023-12-20T01:41:23;6.80;82.90
39601;DHT22;25297;44.758;11.310;2023-12-20T01:43:48;6.80;83.40
39601;DHT22;25297;44.758;11.310;2023-12-20T01:46:14;6.70;83.40
39601;DHT22;25297;44.758;11.310;2023-12-20T01:48:41;6.70;84.80
39601;DHT22;25297;44.758;11.310;2023-12-20T01:51:07;6.70;84.90
39601;DHT22;25297;44.758;11.310;2023-12-20T01:53:33;6.80;85.10
39601;DHT22;25297;44.758;11.310;2023-12-20T01:55:59;6.80;85.00
39601;DHT22;25297;44.758;11.310;2023-12-20T01:58:26;6.80;85.80
39601;DHT22;25297;44.758;11.310;2023-12-20T02:00:52;6.90;86.00
39601;DHT22;25297;44.758;11.310;2023-12-20T02:03:18;6.90;86.00
39601;DHT22;25297;44.758;11.310;2023-12-20T02:05:44;6.90;84.50
39601;DHT22;25297;44.758;11.310;2023-12-20T02:08:11;6.90;85.30
39601;DHT22;25297;44.758;11.310;2023-12-20T02:10:37;6.80;85.80
39601;DHT22;25297;44.758;11.310;2023-12-20T02:13:03;6.90;86.70
39601;DHT22;25297;44.758;11.310;2023-12-20T02:15:29;7.10;86.60
39601;DHT22;25297;44.758;11.310;2023-12-20T02:17:55;7.20;87.00
39601;DHT22;25297;44.758;11.310;2023-12-20T02:20:21;7.20;86.30
39601;DHT22;25297;44.758;11.310;2023-12-20T02:22:46;7.30;84.60
39601;DHT22;25297;44.758;11.310;2023-12-20T02:25:12;7.20;83.10
39601;DHT22;25297;44.758;11.310;2023-12-20T02:27:38;7.20;83.60
39601;DHT22;25297;44.758;11.310;2023-12-20T02:30:05;7.10;83.50
39601;DHT22;25297;44.758;11.310;2023-12-20T02:32:31;7.00;83.20
39601;DHT22;25297;44.758;11.310;2023-12-20T02:34:57;7.00;82.70
39601;DHT22;25297;44.758;11.310;2023-12-20T02:37:23;6.90;82.90
39601;DHT22;25297;44.758;11.310;2023-12-20T02:39:49;6.80;83.70
39601;DHT22;25297;44.758;11.310;2023-12-20T02:42:15;6.80;83.90
39601;DHT22;25297;44.758;11.310;2023-12-20T02:44:40;6.90;84.10
39601;DHT22;25297;44.758;11.310;2023-12-20T02:47:06;6.80;84.80
39601;DHT22;25297;44.758;11.310;2023-12-20T02:49:31;6.90;85.70
39601;DHT22;25297;44.758;11.310;2023-12-20T02:51:57;7.00;85.70
39601;DHT22;25297;44.758;11.310;2023-12-20T02:54:23;6.90;83.50
39601;DHT22;25297;44.758;11.310;2023-12-20T02:56:48;6.90;83.90
39601;DHT22;25297;44.758;11.310;2023-12-20T02:59:14;6.90;83.50
39601;DHT22;25297;44.758;11.310;2023-12-20T03:01:44;6.80;83.40
39601;DHT22;25297;44.758;11.310;2023-12-20T03:04:11;6.70;83.70
39601;DHT22;25297;44.758;11.310;2023-12-20T03:06:36;6.70;85.00
39601;DHT22;25297;44.758;11.310;2023-12-20T03:09:02;6.70;85.20
39601;DHT22;25297;44.758;11.310;2023-12-20T03:11:28;6.70;85.70
39601;DHT22;25297;44.758;11.310;2023-12-20T03:13:55;6.70;85.20
39601;DHT22;25297;44.758;11.310;2023-12-20T03:16:20;6.70;85.40
39601;DHT22;25297;44.758;11.310;2023-12-20T03:18:46;6.80;85.60
39601;DHT22;25297;44.758;11.310;2023-12-20T03:21:11;6.80;85.10
39601;DHT22;25297;44.758;11.310;2023-12-20T03:23:37;6.80;85.10
39601;DHT22;25297;44.758;11.310;2023-12-20T03:26:03;6.80;85.10
39601;DHT22;25297;44.758;11.310;2023-12-20T03:28:29;6.80;85.50
39601;DHT22;25297;44.758;11.310;2023-12-20T03:30:55;6.80;86.00
39601;DHT22;25297;44.758;11.310;2023-12-20T03:33:22;6.80;86.40
39601;DHT22;25297;44.758;11.310;2023-12-20T03:35:48;6.90;86.10
39601;DHT22;25297;44.758;11.310;2023-12-20T03:38:13;6.90;86.50
39601;DHT22;25297;44.758;11.310;2023-12-20T03:40:39;6.90;86.50
39601;DHT22;25297;44.758;11.310;2023-12-20T03:43:04;6.90;86.40
39601;DHT22;25297;44.758;11.310;2023-12-20T03:45:30;6.90;85.90
39601;DHT22;25297;44.758;11.310;2023-12-20T03:47:56;7.00;86.20
39601;DHT22;25297;44.758;11.310;2023-12-20T03:50:26;6.90;86.20
39601;DHT22;25297;44.758;11.310;2023-12-20T03:52:52;7.00;86.80
39601;DHT22;25297;44.758;11.310;2023-12-20T03:55:17;7.00;86.00
39601;DHT22;25297;44.758;11.310;2023-12-20T03:57:43;7.00;86.40
39601;DHT22;25297;44.758;11.310;2023-12-20T04:00:09;7.10;86.60
39601;DHT22;25297;44.758;11.310;2023-12-20T04:02:38;7.10;85.90
39601;DHT22;25297;44.758;11.310;2023-12-20T04:05:04;7.10;84.70
39601;DHT22;25297;44.758;11.310;2023-12-20T04:07:30;7.00;85.40
39601;DHT22;25297;44.758;11.310;2023-12-20T04:09:56;7.00;85.30
39601;DHT22;25297;44.758;11.310;2023-12-20T04:12:22;7.00;85.60
39601;DHT22;25297;44.758;11.310;2023-12-20T04:14:47;7.00;86.30
39601;DHT22;25297;44.758;11.310;2023-12-20T04:17:13;7.00;87.10
39601;DHT22;25297;44.758;11.310;2023-12-20T04:19:41;7.00;86.30
39601;DHT22;25297;44.758;11.310;2023-12-20T04:22:07;6.90;86.00
39601;DHT22;25297;44.758;11.310;2023-12-20T04:24:32;6.90;85.60
39601;DHT22;25297;44.758;11.310;2023-12-20T04:26:58;6.90;85.50
39601;DHT22;25297;44.758;11.310;2023-12-20T04:29:24;6.80;85.90
39601;DHT22;25297;44.758;11.310;2023-12-20T04:31:49;6.80;86.20
39601;DHT22;25297;44.758;11.310;2023-12-20T04:34:17;6.70;86.30
39601;DHT22;25297;44.758;11.310;2023-12-20T04:36:43;6.70;86.80
39601;DHT22;25297;44.758;11.310;2023-12-20T04:39:08;6.70;87.50
39601;DHT22;25297;44.758;11.310;2023-12-20T04:41:34;6.80;88.10
39601;DHT22;25297;44.758;11.310;2023-12-20T04:44:00;6.80;88.30
39601;DHT22;25297;44.758;11.310;2023-12-20T04:46:26;6.90;88.40
39601;DHT22;25297;44.758;11.310;2023-12-20T04:48:51;6.90;87.80
39601;DHT22;25297;44.758;11.310;2023-12-20T04:51:17;7.00;87.80
39601;DHT22;25297;44.758;11.310;2023-12-20T04:53:43;7.00;87.80
39601;DHT22;25297;44.758;11.310;2023-12-20T04:56:08;7.00;87.70
39601;DHT22;25297;44.758;11.310;2023-12-20T04:58:34;7.00;87.90
39601;DHT22;25297;44.758;11.310;2023-12-20T05:01:00;7.10;87.60
39601;DHT22;25297;44.758;11.310;2023-12-20T05:03:26;7.20;86.30
39601;DHT22;25297;44.758;11.310;2023-12-20T05:05:51;7.20;85.30
39601;DHT22;25297;44.758;11.310;2023-12-20T05:08:17;7.20;85.60
39601;DHT22;25297;44.758;11.310;2023-12-20T05:10:43;7.20;85.50
39601;DHT22;25297;44.758;11.310;2023-12-20T05:13:08;7.20;84.90
39601;DHT22;25297;44.758;11.310;2023-12-20T05:15:34;7.10;84.70
39601;DHT22;25297;44.758;11.310;2023-12-20T05:17:59;7.10;84.80
39601;DHT22;25297;44.758;11.310;2023-12-20T05:20:25;7.00;84.80
39601;DHT22;25297;44.758;11.310;2023-12-20T05:22:51;7.00;85.10
39601;DHT22;25297;44.758;11.310;2023-12-20T05:25:16;6.90;84.50
39601;DHT22;25297;44.758;11.310;2023-12-20T05:27:42;6.90;85.10
39601;DHT22;25297;44.758;11.310;2023-12-20T05:30:08;6.90;85.50
39601;DHT22;25297;44.758;11.310;2023-12-20T05:32:33;6.90;85.60
39601;DHT22;25297;44.758;11.310;2023-12-20T05:34:59;6.90;85.80
39601;DHT22;25297;44.758;11.310;2023-12-20T05:37:25;7.00;85.80
39601;DHT22;25297;44.758;11.310;2023-12-20T05:39:51;7.00;85.30
39601;DHT22;25297;44.758;11.310;2023-12-20T05:42:16;7.00;85.20
39601;DHT22;25297;44.758;11.310;2023-12-20T05:44:42;6.90;84.30
39601;DHT22;25297;44.758;11.310;2023-12-20T05:47:07;6.90;85.00
39601;DHT22;25297;44.758;11.310;2023-12-20T05:49:33;6.90;85.30
39601;DHT22;25297;44.758;11.310;2023-12-20T05:51:58;6.90;85.20
39601;DHT22;25297;44.758;11.310;2023-12-20T05:54:24;6.90;85.10
39601;DHT22;25297;44.758;11.310;2023-12-20T05:56:50;6.90;84.60
39601;DHT22;25297;44.758;11.310;2023-12-20T05:59:16;6.80;84.90
39601;DHT22;25297;44.758;11.310;2023-12-20T06:01:41;6.80;85.50
39601;DHT22;25297;44.758;11.310;2023-12-20T06:04:07;6.80;85.70
39601;DHT22;25297;44.758;11.310;2023-12-20T06:06:33;6.80;85.70
39601;DHT22;25297;44.758;11.310;2023-12-20T06:08:58;6.80;86.00
39601;DHT22;25297;44.758;11.310;2023-12-20T06:11:24;6.90;85.70
39601;DHT22;25297;44.758;11.310;2023-12-20T06:13:49;6.80;85.80
39601;DHT22;25297;44.758;11.310;2023-12-20T06:16:18;6.80;85.40
39601;DHT22;25297;44.758;11.310;2023-12-20T06:18:43;6.80;85.90
39601;DHT22;25297;44.758;11.310;2023-12-20T06:21:09;6.80;86.10
39601;DHT22;25297;44.758;11.310;2023-12-20T06:23:38;6.90;86.10
39601;DHT22;25297;44.758;11.310;2023-12-20T06:26:04;6.90;85.90
39601;DHT22;25297;44.758;11.310;2023-12-20T06:28:29;6.90;85.70
39601;DHT22;25297;44.758;11.310;2023-12-20T06:30:55;6.90;85.70
39601;DHT22;25297;44.758;11.310;2023-12-20T06:33:22;6.80;85.40
39601;DHT22;25297;44.758;11.310;2023-12-20T06:35:48;6.80;85.60
39601;DHT22;25297;44.758;11.310;2023-12-20T06:38:14;6.80;86.50
39601;DHT22;25297;44.758;11.310;2023-12-20T06:40:40;6.80;86.70
39601;DHT22;25297;44.758;11.310;2023-12-20T06:43:05;6.70;86.60
39601;DHT22;25297;44.758;11.310;2023-12-20T06:45:32;6.80;86.80
39601;DHT22;25297;44.758;11.310;2023-12-20T06:47:58;6.70;86.80
39601;DHT22;25297;44.758;11.310;2023-12-20T06:50:24;6.70;87.30
39601;DHT22;25297;44.758;11.310;2023-12-20T06:52:49;6.90;87.70
39601;DHT22;25297;44.758;11.310;2023-12-20T06:55:15;6.90;87.20
39601;DHT22;25297;44.758;11.310;2023-12-20T06:57:41;7.00;86.80
39601;DHT22;25297;44.758;11.310;2023-12-20T07:00:07;7.00;86.70
39601;DHT22;25297;44.758;11.310;2023-12-20T07:02:34;7.10;86.60
39601;DHT22;25297;44.758;11.310;2023-12-20T07:04:59;7.20;86.60
39601;DHT22;25297;44.758;11.310;2023-12-20T07:07:25;7.20;86.20
39601;DHT22;25297;44.758;11.310;2023-12-20T07:09:51;7.20;86.00
39601;DHT22;25297;44.758;11.310;2023-12-20T07:12:17;7.20;86.00
39601;DHT22;25297;44.758;11.310;2023-12-20T07:14:46;7.20;85.70
39601;DHT22;25297;44.758;11.310;2023-12-20T07:17:12;7.20;86.20
39601;DHT22;25297;44.758;11.310;2023-12-20T07:19:39;7.20;86.20
39601;DHT22;25297;44.758;11.310;2023-12-20T07:22:06;7.10;86.00
39601;DHT22;25297;44.758;11.310;2023-12-20T07:24:32;7.10;86.30
39601;DHT22;25297;44.758;11.310;2023-12-20T07:26:58;7.10;86.80
39601;DHT22;25297;44.758;11.310;2023-12-20T07:29:24;7.10;87.40
39601;DHT22;25297;44.758;11.310;2023-12-20T07:31:50;7.20;87.70
39601;DHT22;25297;44.758;11.310;2023-12-20T07:34:17;7.40;87.50
39601;DHT22;25297;44.758;11.310;2023-12-20T07:36:43;7.40;87.60
39601;DHT22;25297;44.758;11.310;2023-12-20T07:39:09;7.40;87.20
39601;DHT22;25297;44.758;11.310;2023-12-20T07:41:34;7.50;87.20
39601;DHT22;25297;44.758;11.310;2023-12-20T07:44:00;7.50;87.30
39601;DHT22;25297;44.758;11.310;2023-12-20T07:46:25;7.50;87.00
39601;DHT22;25297;44.758;11.310;2023-12-20T07:48:51;7.50;87.00
39601;DHT22;25297;44.758;11.310;2023-12-20T07:51:17;7.50;87.20
39601;DHT22;25297;44.758;11.310;2023-12-20T07:53:42;7.50;87.20
39601;DHT22;25297;44.758;11.310;2023-12-20T07:56:18;7.60;86.50
39601;DHT22;25297;44.758;11.310;2023-12-20T07:58:44;7.60;86.90
39601;DHT22;25297;44.758;11.310;2023-12-20T08:01:10;7.60;87.10
39601;DHT22;25297;44.758;11.310;2023-12-20T08:03:36;7.60;87.10
39601;DHT22;25297;44.758;11.310;2023-12-20T08:06:02;7.60;87.30
39601;DHT22;25297;44.758;11.310;2023-12-20T08:08:28;7.70;88.20
39601;DHT22;25297;44.758;11.310;2023-12-20T08:10:53;7.80;87.60
39601;DHT22;25297;44.758;11.310;2023-12-20T08:13:19;7.80;87.30
39601;DHT22;25297;44.758;11.310;2023-12-20T08:15:45;7.90;87.20
39601;DHT22;25297;44.758;11.310;2023-12-20T08:18:10;7.90;87.20
39601;DHT22;25297;44.758;11.310;2023-12-20T08:20:36;8.00;87.00
39601;DHT22;25297;44.758;11.310;2023-12-20T08:23:02;8.00;86.40
39601;DHT22;25297;44.758;11.310;2023-12-20T08:25:28;7.90;86.00
39601;DHT22;25297;44.758;11.310;2023-12-20T08:27:53;7.90;86.30
39601;DHT22;25297;44.758;11.310;2023-12-20T08:30:19;7.90;86.80
39601;DHT22;25297;44.758;11.310;2023-12-20T08:32:48;7.90;86.50
39601;DHT22;25297;44.758;11.310;2023-12-20T08:35:14;7.90;86.30
39601;DHT22;25297;44.758;11.310;2023-12-20T08:37:39;7.90;86.30
39601;DHT22;25297;44.758;11.310;2023-12-20T08:40:05;7.90;86.40
39601;DHT22;25297;44.758;11.310;2023-12-20T08:42:31;7.90;87.00
39601;DHT22;25297;44.758;11.310;2023-12-20T08:45:00;7.90;87.20
39601;DHT22;25297;44.758;11.310;2023-12-20T08:47:25;7.90;87.30
39601;DHT22;25297;44.758;11.310;2023-12-20T08:49:51;7.90;87.60
39601;DHT22;25297;44.758;11.310;2023-12-20T08:52:24;8.00;87.50
39601;DHT22;25297;44.758;11.310;2023-12-20T08:54:50;8.00;87.40
39601;DHT22;25297;44.758;11.310;2023-12-20T08:57:22;8.10;87.70
39601;DHT22;25297;44.758;11.310;2023-12-20T08:59:49;8.10;87.90
39601;DHT22;25297;44.758;11.310;2023-12-20T09:02:16;8.20;87.80
39601;DHT22;25297;44.758;11.310;2023-12-20T09:04:42;8.30;86.90
39601;DHT22;25297;44.758;11.310;2023-12-20T09:07:24;8.30;87.40
39601;DHT22;25297;44.758;11.310;2023-12-20T09:09:50;8.30;87.60
39601;DHT22;25297;44.758;11.310;2023-12-20T09:12:18;8.40;87.50
39601;DHT22;25297;44.758;11.310;2023-12-20T09:14:44;8.40;87.50
39601;DHT22;25297;44.758;11.310;2023-12-20T09:17:10;8.50;87.80
39601;DHT22;25297;44.758;11.310;2023-12-20T09:19:37;8.50;87.50
39601;DHT22;25297;44.758;11.310;2023-12-20T09:22:03;8.50;87.30
39601;DHT22;25297;44.758;11.310;2023-12-20T09:24:29;8.60;87.10
39601;DHT22;25297;44.758;11.310;2023-12-20T09:26:55;8.60;87.60
39601;DHT22;25297;44.758;11.310;2023-12-20T09:29:20;8.70;87.60
39601;DHT22;25297;44.758;11.310;2023-12-20T09:31:46;8.70;88.00
39601;DHT22;25297;44.758;11.310;2023-12-20T09:34:15;8.80;87.90
39601;DHT22;25297;44.758;11.310;2023-12-20T09:36:41;8.80;87.90
39601;DHT22;25297;44.758;11.310;2023-12-20T09:39:13;8.80;88.10
39601;DHT22;25297;44.758;11.310;2023-12-20T09:41:43;8.90;88.20
39601;DHT22;25297;44.758;11.310;2023-12-20T09:44:14;8.90;88.00
39601;DHT22;25297;44.758;11.310;2023-12-20T09:46:43;8.90;88.40
39601;DHT22;25297;44.758;11.310;2023-12-20T09:49:10;9.00;88.30
39601;DHT22;25297;44.758;11.310;2023-12-20T09:51:36;9.00;88.30
39601;DHT22;25297;44.758;11.310;2023-12-20T09:54:03;9.00;88.40
39601;DHT22;25297;44.758;11.310;2023-12-20T09:56:29;9.00;88.40
39601;DHT22;25297;44.758;11.310;2023-12-20T09:58:56;9.10;88.60
39601;DHT22;25297;44.758;11.310;2023-12-20T10:01:21;9.10;88.70
39601;DHT22;25297;44.758;11.310;2023-12-20T10:03:47;9.10;89.00
39601;DHT22;25297;44.758;11.310;2023-12-20T10:06:13;9.10;89.00
39601;DHT22;25297;44.758;11.310;2023-12-20T10:08:39;9.10;89.10
39601;DHT22;25297;44.758;11.310;2023-12-20T10:11:05;9.10;89.20
39601;DHT22;25297;44.758;11.310;2023-12-20T10:13:31;9.20;89.40
39601;DHT22;25297;44.758;11.310;2023-12-20T10:15:56;9.20;89.70
39601;DHT22;25297;44.758;11.310;2023-12-20T10:18:23;9.30;89.70
39601;DHT22;25297;44.758;11.310;2023-12-20T10:20:48;9.30;89.50
39601;DHT22;25297;44.758;11.310;2023-12-20T10:23:15;9.30;89.30
39601;DHT22;25297;44.758;11.310;2023-12-20T10:25:41;9.30;89.30
39601;DHT22;25297;44.758;11.310;2023-12-20T10:28:15;9.40;89.80
39601;DHT22;25297;44.758;11.310;2023-12-20T10:30:44;9.40;89.30
39601;DHT22;25297;44.758;11.310;2023-12-20T10:33:10;9.40;89.30
39601;DHT22;25297;44.758;11.310;2023-12-20T10:35:37;9.40;89.70
39601;DHT22;25297;44.758;11.310;2023-12-20T10:38:04;9.50;89.80
39601;DHT22;25297;44.758;11.310;2023-12-20T10:40:32;9.50;89.70
39601;DHT22;25297;44.758;11.310;2023-12-20T10:42:59;9.50;89.90
39601;DHT22;25297;44.758;11.310;2023-12-20T10:45:26;9.60;89.80
39601;DHT22;25297;44.758;11.310;2023-12-20T10:47:52;9.60;89.80
39601;DHT22;25297;44.758;11.310;2023-12-20T10:50:19;9.60;89.40
39601;DHT22;25297;44.758;11.310;2023-12-20T10:52:46;9.60;89.30
39601;DHT22;25297;44.758;11.310;2023-12-20T10:55:12;9.70;89.50
39601;DHT22;25297;44.758;11.310;2023-12-20T10:57:38;9.70;89.30
39601;DHT22;25297;44.758;11.310;2023-12-20T11:00:06;9.70;89.10
39601;DHT22;25297;44.758;11.310;2023-12-20T11:02:38;9.70;89.20
39601;DHT22;25297;44.758;11.310;2023-12-20T11:05:30;9.70;89.50
39601;DHT22;25297;44.758;11.310;2023-12-20T11:08:25;9.80;89.70
39601;DHT22;25297;44.758;11.310;2023-12-20T11:13:39;9.80;90.20
39601;DHT22;25297;44.758;11.310;2023-12-20T11:16:06;9.90;90.10
39601;DHT22;25297;44.758;11.310;2023-12-20T11:18:33;9.90;90.10
39601;DHT22;25297;44.758;11.310;2023-12-20T11:21:05;10.00;90.20
39601;DHT22;25297;44.758;11.310;2023-12-20T11:23:32;10.00;90.20
39601;DHT22;25297;44.758;11.310;2023-12-20T11:25:59;10.00;90.10
39601;DHT22;25297;44.758;11.310;2023-12-20T11:28:27;10.00;89.90
39601;DHT22;25297;44.758;11.310;2023-12-20T11:30:54;10.00;89.90
39601;DHT22;25297;44.758;11.310;2023-12-20T11:33:25;10.00;89.90
39601;DHT22;25297;44.758;11.310;2023-12-20T11:35:51;10.00;89.50
39601;DHT22;25297;44.758;11.310;2023-12-20T11:38:19;10.00;90.00
39601;DHT22;25297;44.758;11.310;2023-12-20T11:40:48;10.00;90.10
39601;DHT22;25297;44.758;11.310;2023-12-20T11:46:05;10.10;90.10
39601;DHT22;25297;44.758;11.310;2023-12-20T11:48:32;10.10;90.20
39601;DHT22;25297;44.758;11.310;2023-12-20T11:50:58;10.00;90.10
39601;DHT22;25297;44.758;11.310;2023-12-20T11:53:23;10.10;90.20
39601;DHT22;25297;44.758;11.310;2023-12-20T11:55:49;10.10;90.30
39601;DHT22;25297;44.758;11.310;2023-12-20T11:58:15;10.10;90.30
39601;DHT22;25297;44.758;11.310;2023-12-20T12:00:42;10.10;90.40
39601;DHT22;25297;44.758;11.310;2023-12-20T12:03:08;10.20;90.30
39601;DHT22;25297;44.758;11.310;2023-12-20T12:05:34;10.20;90.10
39601;DHT22;25297;44.758;11.310;2023-12-20T12:08:01;10.20;90.40
39601;DHT22;25297;44.758;11.310;2023-12-20T12:10:28;10.20;90.40
39601;DHT22;25297;44.758;11.310;2023-12-20T12:12:54;10.20;90.40
39601;DHT22;25297;44.758;11.310;2023-12-20T12:15:20;10.20;90.50
39601;DHT22;25297;44.758;11.310;2023-12-20T12:17:53;10.30;90.70
39601;DHT22;25297;44.758;11.310;2023-12-20T12:20:20;10.30;90.70
39601;DHT22;25297;44.758;11.310;2023-12-20T12:22:46;10.30;91.00
39601;DHT22;25297;44.758;11.310;2023-12-20T12:25:16;10.30;90.70
39601;DHT22;25297;44.758;11.310;2023-12-20T12:27:42;10.30;90.90
39601;DHT22;25297;44.758;11.310;2023-12-20T12:30:09;10.30;91.00
39601;DHT22;25297;44.758;11.310;2023-12-20T12:32:35;10.30;91.00
39601;DHT22;25297;44.758;11.310;2023-12-20T12:35:04;10.30;91.00
39601;DHT22;25297;44.758;11.310;2023-12-20T12:37:37;10.30;91.10
39601;DHT22;25297;44.758;11.310;2023-12-20T12:40:05;10.30;91.10
39601;DHT22;25297;44.758;11.310;2023-12-20T12:42:31;10.30;91.00
39601;DHT22;25297;44.758;11.310;2023-12-20T12:44:56;10.30;91.10
39601;DHT22;25297;44.758;11.310;2023-12-20T12:47:22;10.30;91.10
39601;DHT22;25297;44.758;11.310;2023-12-20T12:49:50;10.30;91.00
39601;DHT22;25297;44.758;11.310;2023-12-20T12:52:16;10.30;91.10
39601;DHT22;25297;44.758;11.310;2023-12-20T12:54:42;10.30;91.00
39601;DHT22;25297;44.758;11.310;2023-12-20T12:57:08;10.30;91.20
39601;DHT22;25297;44.758;11.310;2023-12-20T12:59:34;10.30;91.30
39601;DHT22;25297;44.758;11.310;2023-12-20T13:02:00;10.30;91.30
39601;DHT22;25297;44.758;11.310;2023-12-20T13:04:25;10.30;91.20
39601;DHT22;25297;44.758;11.310;2023-12-20T13:06:51;10.30;91.40
39601;DHT22;25297;44.758;11.310;2023-12-20T13:09:17;10.30;91.40
39601;DHT22;25297;44.758;11.310;2023-12-20T13:11:43;10.30;91.40
39601;DHT22;25297;44.758;11.310;2023-12-20T13:14:09;10.30;91.40
39601;DHT22;25297;44.758;11.310;2023-12-20T13:16:43;10.30;91.50
39601;DHT22;25297;44.758;11.310;2023-12-20T13:19:10;10.30;91.60
39601;DHT22;25297;44.758;11.310;2023-12-20T13:21:36;10.30;91.60
39601;DHT22;25297;44.758;11.310;2023-12-20T13:24:01;10.30;91.70
39601;DHT22;25297;44.758;11.310;2023-12-20T13:26:27;10.30;91.60
39601;DHT22;25297;44.758;11.310;2023-12-20T13:28:54;10.30;91.70
39601;DHT22;25297;44.758;11.310;2023-12-20T13:31:20;10.30;91.80
39601;DHT22;25297;44.758;11.310;2023-12-20T13:33:45;10.30;91.80
39601;DHT22;25297;44.758;11.310;2023-12-20T13:36:12;10.30;91.80
39601;DHT22;25297;44.758;11.310;2023-12-20T13:38:38;10.30;91.80
39601;DHT22;25297;44.758;11.310;2023-12-20T13:41:04;10.30;91.80
39601;DHT22;25297;44.758;11.310;2023-12-20T13:43:31;10.30;91.90
39601;DHT22;25297;44.758;11.310;2023-12-20T13:45:58;10.30;92.00
39601;DHT22;25297;44.758;11.310;2023-12-20T13:48:24;10.30;92.00
39601;DHT22;25297;44.758;11.310;2023-12-20T13:50:49;10.30;91.90
39601;DHT22;25297;44.758;11.310;2023-12-20T13:53:15;10.40;91.80
39601;DHT22;25297;44.758;11.310;2023-12-20T13:55:41;10.40;91.70
39601;DHT22;25297;44.758;11.310;2023-12-20T13:58:07;10.40;91.70
39601;DHT22;25297;44.758;11.310;2023-12-20T14:00:32;10.40;91.70
39601;DHT22;25297;44.758;11.310;2023-12-20T14:02:58;10.50;91.70
39601;DHT22;25297;44.758;11.310;2023-12-20T14:05:24;10.50;91.60
39601;DHT22;25297;44.758;11.310;2023-12-20T14:07:49;10.50;91.50
39601;DHT22;25297;44.758;11.310;2023-12-20T14:10:15;10.60;91.60
39601;DHT22;25297;44.758;11.310;2023-12-20T14:12:41;10.60;91.60
39601;DHT22;25297;44.758;11.310;2023-12-20T14:15:07;10.60;91.60
39601;DHT22;25297;44.758;11.310;2023-12-20T14:17:37;10.60;91.60
39601;DHT22;25297;44.758;11.310;2023-12-20T14:20:04;10.60;91.60
39601;DHT22;25297;44.758;11.310;2023-12-20T14:22:30;10.60;91.50
39601;DHT22;25297;44.758;11.310;2023-12-20T14:24:55;10.60;91.50
39601;DHT22;25297;44.758;11.310;2023-12-20T14:27:22;10.60;91.60
39601;DHT22;25297;44.758;11.310;2023-12-20T14:29:50;10.60;91.70
39601;DHT22;25297;44.758;11.310;2023-12-20T14:32:15;10.60;91.80
39601;DHT22;25297;44.758;11.310;2023-12-20T14:34:41;10.70;91.50
39601;DHT22;25297;44.758;11.310;2023-12-20T14:37:07;10.60;91.70
39601;DHT22;25297;44.758;11.310;2023-12-20T14:39:33;10.70;91.60
39601;DHT22;25297;44.758;11.310;2023-12-20T14:41:58;10.70;91.60
39601;DHT22;25297;44.758;11.310;2023-12-20T14:44:24;10.70;91.60
39601;DHT22;25297;44.758;11.310;2023-12-20T14:46:50;10.70;91.60
39601;DHT22;25297;44.758;11.310;2023-12-20T14:49:16;10.70;91.80
39601;DHT22;25297;44.758;11.310;2023-12-20T14:51:44;10.70;91.60
39601;DHT22;25297;44.758;11.310;2023-12-20T14:54:12;10.70;91.50
39601;DHT22;25297;44.758;11.310;2023-12-20T14:56:37;10.70;91.60
39601;DHT22;25297;44.758;11.310;2023-12-20T14:59:03;10.70;91.70
39601;DHT22;25297;44.758;11.310;2023-12-20T15:01:28;10.70;91.60
39601;DHT22;25297;44.758;11.310;2023-12-20T15:03:54;10.70;91.60
39601;DHT22;25297;44.758;11.310;2023-12-20T15:06:21;10.70;91.60
39601;DHT22;25297;44.758;11.310;2023-12-20T15:08:47;10.70;91.60
39601;DHT22;25297;44.758;11.310;2023-12-20T15:11:12;10.70;91.70
39601;DHT22;25297;44.758;11.310;2023-12-20T15:13:39;10.70;91.60
39601;DHT22;25297;44.758;11.310;2023-12-20T15:16:05;10.60;91.50
39601;DHT22;25297;44.758;11.310;2023-12-20T15:18:31;10.60;91.50
39601;DHT22;25297;44.758;11.310;2023-12-20T15:20:57;10.60;91.60
39601;DHT22;25297;44.758;11.310;2023-12-20T15:23:23;10.50;91.60
39601;DHT22;25297;44.758;11.310;2023-12-20T15:25:51;10.50;91.60
39601;DHT22;25297;44.758;11.310;2023-12-20T15:28:17;10.40;91.60